x

West Moresby (46208) Wave Buoy

1:00pm - Mon 24th Nov 2014 All times are PST. -8 hours from GMT.

  • Sig Wave height 10.5ft
  • Peak Period 11s
  • Wind
    13mph, 18mph gusts
  • Sea Temp 51°f
  • Air Temp 49°f
  • Sea Pressure 1015.3mb
  • West Moresby
  • West Moresby

More Historic Weather Station data

Upgrade to MSW Pro to gain access to the past 30 days of data for over 8000 Wavebouys and Weather Stations around the globe.

Join Pro

Comparision Forecast

View Surf forecast
   
Mon 11/24 1:00pm 10.5ft 11s 13 18 mph 1015.3mb 51f 49f
12:00pm 11ft 13s 16 20 mph 1015.1mb 51f 50f
11:00am 11ft 13s 16 18 mph 1014.5mb 51f 50f
10:00am 11ft 13s 16 20 mph 1013.7mb 51f 50f
9:00am 10ft 12s 16 20 mph 1012.6mb 51f 50f
8:00am 11ft 12s 16 20 mph 1012.1mb 51f 50f
7:00am 11.5ft 12s 18 20 mph 1011.5mb 51f 49f
6:00am 12ft 12s 20 25 mph 1010.9mb 51f 49f
5:00am 14ft 13s 20 25 mph 1010.3mb 51f 50f
4:00am 12.5ft 12s 18 22 mph 1009.5mb 51f 51f
3:00am 13ft 13s 16 20 mph 1009mb 51f 51f
2:00am 14ft 13s 13 16 mph 1008.3mb 51f 49f
1:00am 14ft 13s 25 29 mph 1008mb 51f 50f
12:00am 14ft 14s 34 40 mph 1008.8mb 51f 50f
Sun 11/23 11:00pm 14ft 12s 31 38 mph 1009.5mb 51f 49f
10:00pm 14.5ft 12s 31 38 mph 1010.3mb 51f 49f
9:00pm 13ft 14s 31 40 mph 1011.7mb 51f 50f
8:00pm 13.5ft 14s 25 34 mph 1012.9mb 51f 50f
7:00pm 13.5ft 14s 20 25 mph 1013.8mb 51f 51f
6:00pm 14ft 13s 18 22 mph 1014.1mb 51f 51f
5:00pm 13ft 13s 13 18 mph 1014.8mb 51f 50f
4:00pm 14ft 13s 13 18 mph 1014.8mb 51f 50f
3:00pm 13ft 14s 16 18 mph 1014.7mb 51f 50f
2:00pm 14.5ft 12s 13 20 mph 1014.5mb 51f 50f
1:00pm 14ft 13s 13 18 mph 1014.1mb 51f 50f
12:00pm 14ft 13s 18 22 mph 1013.8mb 51f 50f
11:00am 14ft 13s 20 25 mph 1013.1mb 51f 50f
10:00am 14ft 11s 20 25 mph 1012mb 51f 50f
9:00am 15ft 13s 20 27 mph 1010.8mb 51f 50f
8:00am 15ft 14s 22 29 mph 1009.6mb 51f 50f
7:00am 15ft 13s 25 34 mph 1008.5mb 51f 50f
6:00am 14.5ft 14s 25 31 mph 1007.2mb 51f 49f
5:00am 15.5ft 13s 25 31 mph 1006.3mb 51f 48f
4:00am 15ft 14s 25 36 mph 1004.8mb 51f 48f
3:00am 14ft 13s 27 34 mph 1003.7mb 51f 47f
2:00am 15ft 13s 25 29 mph 1002.2mb 51f 47f
1:00am 15ft 11s 27 38 mph 1000.6mb 51f 46f
12:00am 13ft 12s 38 49 mph 997.9mb 51f 45f
Sat 11/22 11:00pm 12ft 14s 18 27 mph 997.2mb 51f 47f
10:00pm 13ft 12s 9 16 mph 996.7mb 51f 47f
9:00pm 12.5ft 12s 11 13 mph 996.6mb 51f 46f
8:00pm 12.5ft 14s 22 27 mph 997.1mb 51f 47f
7:00pm 12.5ft 14s 18 25 mph 999.3mb 51f 45f
6:00pm 13.5ft 14s 18 22 mph 999.6mb 51f 51f
5:00pm 12ft 14s 16 22 mph 1000.8mb 51f 50f
4:00pm 13.5ft 15s 20 22 mph 1001.2mb 51f 50f
3:00pm 13.5ft 14s 18 20 mph 1001.7mb 51f 50f
2:00pm 15ft 14s 20 27 mph 1001.8mb 51f 50f
1:00pm 15ft 14s 18 22 mph 1001.5mb 51f 50f
12:00pm 13.5ft 14s 22 29 mph 1001.6mb 51f 49f
11:00am 14ft 14s 20 27 mph 1001.2mb 51f 49f
10:00am 14ft 13s 18 22 mph 1000.5mb 51f 49f
9:00am 13ft 14s 18 22 mph 999.8mb 51f 50f
8:00am 13ft 14s 16 20 mph 999.1mb 51f 50f
7:00am 13ft 14s 18 25 mph 998.4mb 51f 50f
6:00am 15ft 15s 20 25 mph 997.7mb 51f 49f
5:00am 13.5ft 15s 18 25 mph 997.4mb 51f 48f
4:00am 15.5ft 14s 18 22 mph 997.1mb 51f 50f
3:00am 15.5ft 15s 18 25 mph 996.8mb 51f 50f
2:00am 15ft 16s 16 20 mph 996.3mb 51f 49f
1:00am 15.5ft 14s 16 22 mph 995.8mb 51f 50f
12:00am 15.5ft 13s 18 22 mph 995.1mb 51f 50f
Fri 11/21 11:00pm 16.5ft 15s 16 25 mph 994.5mb 51f 50f
10:00pm 16ft 15s 16 22 mph 994.1mb 51f 49f
9:00pm 16.5ft 14s 9 13 mph 993.6mb 51f 49f
8:00pm 17.5ft 14s 20 25 mph 993.2mb 51f 49f
7:00pm 16.5ft 16s 18 22 mph 993mb 51f 48f
6:00pm 16.5ft 15s 18 22 mph 992.4mb 51f 49f
5:00pm 15.5ft 16s 16 20 mph 992.3mb 51f 49f
4:00pm 16ft 16s 18 22 mph 991.8mb 51f 49f
3:00pm 15ft 17s 16 22 mph 991.7mb 51f 48f
2:00pm 15.5ft 17s 18 22 mph 991.6mb 51f 49f
1:00pm 15ft 10s 18 22 mph 991.4mb 51f 49f
12:00pm 15ft 10s 18 22 mph 991.6mb 51f 48f
11:00am 15ft 10s 20 25 mph 991.6mb 51f 49f
10:00am 15.5ft 10s 18 22 mph 991.3mb 51f 49f
9:00am 14ft 10s 16 25 mph 991.2mb 51f 48f
8:00am 12.5ft 9s 18 22 mph 990.9mb 51f 49f
7:00am 13ft 10s 18 25 mph 990.9mb 51f 50f
6:00am 13ft 10s 18 22 mph 990.6mb 51f 50f
5:00am 12.5ft 9s 18 22 mph 990.7mb 51f 50f
4:00am 13.5ft 9s 20 25 mph 990.3mb 51f 50f
3:00am 14.5ft 8s 18 25 mph 990mb 51f 49f
2:00am 13ft 8s 36 47 mph 989mb 51f 50f
1:00am 12.5ft 8s 34 43 mph 990.1mb 51f 50f
12:00am 11ft 7s 36 49 mph 991.1mb 51f 49f
Thu 11/20 11:00pm 9ft 12s 38 47 mph 992.4mb 51f 49f